createdAt,value
2023-05-07T00:02:08.509Z,95.08
2023-05-07T00:04:38.526Z,95.49
2023-05-07T00:07:05.442Z,99.27
2023-05-07T00:09:42.208Z,98.65
2023-05-07T00:12:08.647Z,98.76
2023-05-07T00:14:35.210Z,98.38
2023-05-07T00:17:01.708Z,98.28
2023-05-07T00:19:41.352Z,100.00
2023-05-07T00:22:09.123Z,100.00
2023-05-07T00:24:35.631Z,100.00
2023-05-07T00:27:02.102Z,100.00
2023-05-07T00:29:28.662Z,100.00
2023-05-07T00:31:57.133Z,100.00
2023-05-07T00:34:23.710Z,100.00
2023-05-07T00:36:50.228Z,100.00
2023-05-07T00:39:22.586Z,100.00
2023-05-07T00:41:49.061Z,100.00
2023-05-07T00:44:19.677Z,100.00
2023-05-07T00:46:46.403Z,100.00
2023-05-07T00:49:14.024Z,100.00
2023-05-07T00:51:40.501Z,100.00
2023-05-07T00:54:07.042Z,100.00
2023-05-07T00:56:33.862Z,100.00
2023-05-07T00:59:09.070Z,100.00
2023-05-07T01:01:35.885Z,100.00
2023-05-07T01:04:02.757Z,100.00
2023-05-07T01:06:31.207Z,100.00
2023-05-07T01:08:59.356Z,100.00
2023-05-07T01:11:26.565Z,100.00
2023-05-07T01:14:00.287Z,100.00
2023-05-07T01:16:27.867Z,100.00
2023-05-07T01:18:54.404Z,100.00
2023-05-07T01:21:27.497Z,100.00
2023-05-07T01:23:55.801Z,100.00
2023-05-07T01:26:23.140Z,100.00
2023-05-07T01:28:49.596Z,100.00
2023-05-07T01:31:18.113Z,100.00
2023-05-07T01:33:46.361Z,100.00
2023-05-07T01:36:14.339Z,100.00
2023-05-07T01:38:43.406Z,100.00
2023-05-07T01:41:10.007Z,100.00
2023-05-07T01:43:36.493Z,100.00
2023-05-07T01:46:03.976Z,100.00
2023-05-07T01:48:32.072Z,100.00
2023-05-07T01:50:59.217Z,100.00
2023-05-07T01:53:28.649Z,100.00
2023-05-07T01:55:55.272Z,100.00
2023-05-07T01:58:22.048Z,100.00
2023-05-07T02:00:58.573Z,100.00
2023-05-07T02:03:25.161Z,100.00
2023-05-07T02:05:51.666Z,100.00
2023-05-07T02:08:19.221Z,100.00
2023-05-07T02:10:45.659Z,100.00
2023-05-07T02:13:12.118Z,100.00
2023-05-07T02:15:38.632Z,100.00
2023-05-07T02:18:10.222Z,100.00
2023-05-07T02:20:39.974Z,100.00
2023-05-07T02:23:06.417Z,100.00
2023-05-07T02:25:33.944Z,100.00
2023-05-07T02:28:00.501Z,100.00
2023-05-07T02:30:27.132Z,100.00
2023-05-07T02:33:04.741Z,100.00
2023-05-07T02:35:31.448Z,100.00
2023-05-07T02:37:57.905Z,100.00
2023-05-07T02:40:24.396Z,100.00
2023-05-07T02:42:50.857Z,100.00
2023-05-07T02:45:17.402Z,100.00
2023-05-07T02:47:43.882Z,100.00
2023-05-07T02:50:16.510Z,100.00
2023-05-07T02:52:42.999Z,100.00
2023-05-07T02:55:09.800Z,100.00
2023-05-07T02:57:36.313Z,100.00
2023-05-07T03:00:20.298Z,100.00
2023-05-07T03:02:46.895Z,100.00
2023-05-07T03:05:13.707Z,100.00
2023-05-07T03:07:40.379Z,100.00
2023-05-07T03:10:07.551Z,100.00
2023-05-07T03:12:34.184Z,100.00
2023-05-07T03:15:00.674Z,100.00
2023-05-07T03:17:27.273Z,100.00
2023-05-07T03:19:53.875Z,100.00
2023-05-07T03:22:20.458Z,100.00
2023-05-07T03:24:50.905Z,100.00
2023-05-07T03:27:17.415Z,100.00
2023-05-07T03:29:51.880Z,100.00
2023-05-07T03:32:18.424Z,100.00
2023-05-07T03:34:44.982Z,100.00
2023-05-07T03:37:11.487Z,100.00
2023-05-07T03:39:39.064Z,100.00
2023-05-07T03:42:05.661Z,100.00
2023-05-07T03:44:37.125Z,100.00
2023-05-07T03:47:04.940Z,100.00
2023-05-07T03:49:31.408Z,100.00
2023-05-07T03:52:03.990Z,100.00
2023-05-07T03:54:31.468Z,100.00
2023-05-07T03:56:57.930Z,100.00
2023-05-07T03:59:24.436Z,100.00
2023-05-07T04:01:51.111Z,100.00
2023-05-07T04:04:17.777Z,100.00
2023-05-07T04:06:44.329Z,100.00
2023-05-07T04:09:11.270Z,100.00
2023-05-07T04:11:37.786Z,100.00
2023-05-07T04:14:04.239Z,100.00
2023-05-07T04:16:32.893Z,100.00
2023-05-07T04:18:59.406Z,100.00
2023-05-07T04:21:26.852Z,100.00
2023-05-07T04:23:53.399Z,100.00
2023-05-07T04:26:19.945Z,100.00
2023-05-07T04:28:46.644Z,100.00
2023-05-07T04:31:13.082Z,100.00
2023-05-07T04:33:39.583Z,100.00
2023-05-07T04:36:06.222Z,100.00
2023-05-07T04:38:34.830Z,100.00
2023-05-07T04:41:06.327Z,100.00
2023-05-07T04:43:33.050Z,100.00
2023-05-07T04:45:59.953Z,100.00
2023-05-07T04:48:27.492Z,100.00
2023-05-07T04:50:54.071Z,100.00
2023-05-07T04:53:21.105Z,100.00
2023-05-07T04:55:47.793Z,100.00
2023-05-07T04:58:16.748Z,100.00
2023-05-07T05:00:43.556Z,100.00
2023-05-07T05:03:17.013Z,100.00
2023-05-07T05:05:43.532Z,100.00
2023-05-07T05:08:10.087Z,96.45
2023-05-07T05:10:36.547Z,91.78
2023-05-07T05:13:03.087Z,89.18
2023-05-07T05:15:33.758Z,86.16
2023-05-07T05:18:00.603Z,80.00
2023-05-07T05:20:27.335Z,79.23
2023-05-07T05:22:53.833Z,78.57
2023-05-07T05:25:20.592Z,80.30
2023-05-07T05:27:47.108Z,77.52
2023-05-07T05:30:14.078Z,72.85
2023-05-07T05:32:40.629Z,73.62
2023-05-07T05:35:07.857Z,75.78
2023-05-07T05:37:34.758Z,74.53
2023-05-07T05:40:01.244Z,75.90
2023-05-07T05:42:31.708Z,73.58
2023-05-07T05:44:58.157Z,70.44
2023-05-07T05:47:24.685Z,73.41
2023-05-07T05:49:51.122Z,71.85
2023-05-07T05:52:18.214Z,71.96
2023-05-07T05:54:44.710Z,71.58
2023-05-07T05:57:11.883Z,71.01
2023-05-07T05:59:38.451Z,72.51
2023-05-07T06:02:05.051Z,72.27
2023-05-07T06:04:33.554Z,70.96
2023-05-07T06:07:00.058Z,71.01
2023-05-07T06:09:26.702Z,72.16
2023-05-07T06:11:53.308Z,72.18
2023-05-07T06:14:25.906Z,73.51
2023-05-07T06:16:52.404Z,70.38
2023-05-07T06:19:24.047Z,69.85
2023-05-07T06:21:50.760Z,68.74
2023-05-07T06:24:22.358Z,69.07
2023-05-07T06:26:48.910Z,68.32
2023-05-07T06:29:16.439Z,66.93
2023-05-07T06:31:44.015Z,66.54
2023-05-07T06:34:11.227Z,64.96
2023-05-07T06:36:37.737Z,65.31
2023-05-07T06:39:04.176Z,63.66
2023-05-07T06:41:30.609Z,64.23
2023-05-07T06:43:57.087Z,65.25
2023-05-07T06:46:23.672Z,65.71
2023-05-07T06:48:50.208Z,63.95
2023-05-07T06:51:16.639Z,63.02
2023-05-07T06:53:45.167Z,60.47
2023-05-07T06:56:11.866Z,61.08
2023-05-07T06:58:46.272Z,61.38
2023-05-07T07:01:12.737Z,60.59
2023-05-07T07:03:41.494Z,60.43
2023-05-07T07:06:08.040Z,62.39
2023-05-07T07:08:35.597Z,59.58
2023-05-07T07:11:02.079Z,59.25
2023-05-07T07:13:34.637Z,59.26
2023-05-07T07:16:01.563Z,58.41
2023-05-07T07:18:28.428Z,58.34
2023-05-07T07:20:54.870Z,58.02
2023-05-07T07:23:21.567Z,56.81
2023-05-07T07:25:49.856Z,56.34
2023-05-07T07:28:17.346Z,55.31
2023-05-07T07:30:51.818Z,56.18
2023-05-07T07:33:18.284Z,55.72
2023-05-07T07:35:44.750Z,55.96
2023-05-07T07:38:11.312Z,57.96
2023-05-07T07:40:38.140Z,58.53
2023-05-07T07:43:04.671Z,58.20
2023-05-07T07:45:38.178Z,56.75
2023-05-07T07:48:05.644Z,56.35
2023-05-07T07:50:44.586Z,55.10
2023-05-07T07:53:12.436Z,54.25
2023-05-07T07:55:42.132Z,56.24
2023-05-07T07:58:10.720Z,56.04
2023-05-07T08:00:37.553Z,55.40
2023-05-07T08:03:04.455Z,56.13
2023-05-07T08:05:31.262Z,57.55
2023-05-07T08:07:57.771Z,55.37
2023-05-07T08:10:24.332Z,55.71
2023-05-07T08:12:51.453Z,54.27
2023-05-07T08:15:19.116Z,55.11
2023-05-07T08:17:45.629Z,56.12
2023-05-07T08:20:13.411Z,56.00
2023-05-07T08:22:45.240Z,54.91
2023-05-07T08:25:13.756Z,55.59
2023-05-07T08:27:40.280Z,56.46
2023-05-07T08:30:07.440Z,54.79
2023-05-07T08:32:33.989Z,53.77
2023-05-07T08:35:01.004Z,53.81
2023-05-07T08:37:28.598Z,53.12
2023-05-07T08:39:55.051Z,53.61
2023-05-07T08:42:25.976Z,54.70
2023-05-07T08:44:56.634Z,54.31
2023-05-07T08:47:31.260Z,54.17
2023-05-07T08:49:57.829Z,54.41
2023-05-07T08:52:24.360Z,55.68
2023-05-07T08:54:51.142Z,55.26
2023-05-07T08:57:17.661Z,55.86
2023-05-07T08:59:44.176Z,55.33
2023-05-07T09:02:12.380Z,56.90
2023-05-07T09:04:39.092Z,55.92
2023-05-07T09:07:06.429Z,55.53
2023-05-07T09:09:36.041Z,56.96
2023-05-07T09:12:03.237Z,54.06
2023-05-07T09:14:32.746Z,53.18
2023-05-07T09:17:05.367Z,53.88
2023-05-07T09:19:32.104Z,50.29
2023-05-07T09:22:00.953Z,51.00
2023-05-07T09:24:29.560Z,51.26
2023-05-07T09:27:03.311Z,50.64
2023-05-07T09:29:44.781Z,51.57
2023-05-07T09:32:11.771Z,52.27
2023-05-07T09:34:38.359Z,52.62
2023-05-07T09:37:06.394Z,53.45
2023-05-07T09:39:47.237Z,50.56
2023-05-07T09:42:17.789Z,52.04
2023-05-07T09:44:44.811Z,52.40
2023-05-07T09:47:12.785Z,50.74
2023-05-07T09:49:41.070Z,51.45
2023-05-07T09:52:09.744Z,51.28
2023-05-07T09:54:38.870Z,51.08
2023-05-07T09:57:08.014Z,50.49
2023-05-07T09:59:36.044Z,51.97
2023-05-07T10:02:05.224Z,52.19
2023-05-07T10:04:33.061Z,52.82
2023-05-07T10:07:00.801Z,51.39
2023-05-07T10:09:27.918Z,49.61
2023-05-07T10:12:00.708Z,50.56
2023-05-07T10:14:28.962Z,51.62
2023-05-07T10:16:57.390Z,50.14
2023-05-07T10:19:25.154Z,49.31
2023-05-07T10:22:03.046Z,48.28
2023-05-07T10:24:37.766Z,48.90
2023-05-07T10:27:15.399Z,48.36
2023-05-07T10:29:45.872Z,48.94
2023-05-07T10:32:38.062Z,49.30
2023-05-07T10:35:07.916Z,48.59
2023-05-07T10:37:35.294Z,50.14
2023-05-07T10:40:02.494Z,48.28
2023-05-07T10:42:29.143Z,47.15
2023-05-07T10:44:55.879Z,48.62
2023-05-07T10:47:22.444Z,49.08
2023-05-07T10:49:48.900Z,50.13
2023-05-07T10:52:22.652Z,48.33
2023-05-07T10:55:18.717Z,49.75
2023-05-07T10:57:45.405Z,48.73
2023-05-07T11:00:16.856Z,50.25
2023-05-07T11:03:00.489Z,50.35
2023-05-07T11:05:30.183Z,48.74
2023-05-07T11:08:04.497Z,47.22
2023-05-07T11:10:59.350Z,48.05
2023-05-07T11:13:46.366Z,47.32
2023-05-07T11:16:25.719Z,47.03
2023-05-07T11:18:54.975Z,47.49
2023-05-07T11:21:41.737Z,46.19
2023-05-07T11:24:11.353Z,46.12
2023-05-07T11:26:48.221Z,47.00
2023-05-07T11:29:23.370Z,49.15
2023-05-07T11:31:56.158Z,47.00
2023-05-07T11:34:27.810Z,48.42
2023-05-07T11:36:56.841Z,46.69
2023-05-07T11:39:29.476Z,47.19
2023-05-07T11:41:57.057Z,48.44
2023-05-07T11:44:23.544Z,49.29
2023-05-07T11:46:50.103Z,48.72
2023-05-07T11:49:21.757Z,45.28
2023-05-07T11:51:48.412Z,47.46
2023-05-07T11:54:18.713Z,45.78
2023-05-07T11:56:46.060Z,47.16
2023-05-07T11:59:12.588Z,46.44
2023-05-07T12:01:39.288Z,47.13
2023-05-07T12:04:06.462Z,47.30
2023-05-07T12:06:37.713Z,46.74
2023-05-07T12:09:12.549Z,46.70
2023-05-07T12:11:46.929Z,45.40
2023-05-07T12:14:13.380Z,46.27
2023-05-07T12:16:41.817Z,45.45
2023-05-07T12:19:09.970Z,46.14
2023-05-07T12:21:43.626Z,45.44
2023-05-07T12:24:10.067Z,44.89
2023-05-07T12:26:42.392Z,44.05
2023-05-07T12:29:09.070Z,45.21
2023-05-07T12:31:36.661Z,43.99
2023-05-07T12:34:03.549Z,44.10
2023-05-07T12:36:39.098Z,45.00
2023-05-07T12:39:07.027Z,43.47
2023-05-07T12:42:02.741Z,43.84
2023-05-07T12:44:33.683Z,43.17
2023-05-07T12:47:03.279Z,42.71
2023-05-07T12:49:30.951Z,44.41
2023-05-07T12:51:57.536Z,42.19
2023-05-07T12:54:42.212Z,43.33
2023-05-07T12:57:10.578Z,43.45
2023-05-07T12:59:41.599Z,42.52
2023-05-07T13:02:09.243Z,41.82
2023-05-07T13:04:36.642Z,42.63
2023-05-07T13:07:03.590Z,43.05
2023-05-07T13:09:30.431Z,41.71
2023-05-07T13:11:56.902Z,42.86
2023-05-07T13:14:23.387Z,43.18
2023-05-07T13:16:50.933Z,43.49
2023-05-07T13:19:18.466Z,41.70
2023-05-07T13:21:44.946Z,43.39
2023-05-07T13:24:11.446Z,43.23
2023-05-07T13:26:37.982Z,43.09
2023-05-07T13:29:04.443Z,42.26
2023-05-07T13:31:31.121Z,43.70
2023-05-07T13:33:59.716Z,41.92
2023-05-07T13:36:26.411Z,42.60
2023-05-07T13:39:00.545Z,42.39
2023-05-07T13:41:27.098Z,41.31
2023-05-07T13:43:53.552Z,43.36
2023-05-07T13:46:20.119Z,42.72
2023-05-07T13:48:46.698Z,42.52
2023-05-07T13:51:13.211Z,44.06
2023-05-07T13:53:40.191Z,43.66
2023-05-07T13:56:06.842Z,42.15
2023-05-07T13:58:33.596Z,41.94
2023-05-07T14:01:00.562Z,41.68
2023-05-07T14:03:27.191Z,41.07
2023-05-07T14:05:53.842Z,42.06
2023-05-07T14:08:20.924Z,41.50
2023-05-07T14:10:47.656Z,41.93
2023-05-07T14:13:14.168Z,41.71
2023-05-07T14:15:41.350Z,41.66
2023-05-07T14:18:08.032Z,40.72
2023-05-07T14:20:37.661Z,41.57
2023-05-07T14:23:04.220Z,42.71
2023-05-07T14:25:30.865Z,43.59
2023-05-07T14:28:03.397Z,41.67
2023-05-07T14:30:29.880Z,40.93
2023-05-07T14:32:56.376Z,41.70
2023-05-07T14:35:24.943Z,40.84
2023-05-07T14:37:51.514Z,40.25
2023-05-07T14:40:18.016Z,40.09
2023-05-07T14:42:44.684Z,41.36
2023-05-07T14:45:11.702Z,41.09
2023-05-07T14:47:43.524Z,41.00
2023-05-07T14:50:10.268Z,41.04
2023-05-07T14:52:36.771Z,41.74
2023-05-07T14:55:04.967Z,42.38
2023-05-07T14:57:35.719Z,42.46
2023-05-07T15:00:09.790Z,42.81
2023-05-07T15:02:36.471Z,44.19
2023-05-07T15:05:03.008Z,43.41
2023-05-07T15:07:29.477Z,45.00
2023-05-07T15:09:56.180Z,43.57
2023-05-07T15:12:22.660Z,43.17
2023-05-07T15:14:49.171Z,42.29
2023-05-07T15:17:16.112Z,43.08
2023-05-07T15:19:43.540Z,44.40
2023-05-07T15:22:10.002Z,43.31
2023-05-07T15:24:36.464Z,44.02
2023-05-07T15:27:04.054Z,43.37
2023-05-07T15:29:30.528Z,44.67
2023-05-07T15:32:05.165Z,44.67
2023-05-07T15:34:40.466Z,44.35
2023-05-07T15:37:08.223Z,45.66
2023-05-07T15:39:35.744Z,45.74
2023-05-07T15:42:03.684Z,45.08
2023-05-07T15:44:40.544Z,45.55
2023-05-07T15:47:07.026Z,44.74
2023-05-07T15:49:33.552Z,44.00
2023-05-07T15:52:00.114Z,44.93
2023-05-07T15:54:26.678Z,44.21
2023-05-07T15:56:53.118Z,44.59
2023-05-07T15:59:21.736Z,45.15
2023-05-07T16:01:48.335Z,44.13
2023-05-07T16:04:15.173Z,45.44
2023-05-07T16:06:41.733Z,45.70
2023-05-07T16:09:10.333Z,46.55
2023-05-07T16:11:36.844Z,47.08
2023-05-07T16:14:10.279Z,46.93
2023-05-07T16:16:49.167Z,44.88
2023-05-07T16:19:15.890Z,45.74
2023-05-07T16:21:42.343Z,46.43
2023-05-07T16:24:15.048Z,46.85
2023-05-07T16:26:41.513Z,47.17
2023-05-07T16:29:08.414Z,47.79
2023-05-07T16:31:38.190Z,46.49
2023-05-07T16:34:05.850Z,47.91
2023-05-07T16:36:38.263Z,47.37
2023-05-07T16:39:04.797Z,46.70
2023-05-07T16:41:37.869Z,47.64
2023-05-07T16:44:04.510Z,47.81
2023-05-07T16:46:32.012Z,47.72
2023-05-07T16:48:58.494Z,46.66
2023-05-07T16:51:36.216Z,47.55
2023-05-07T16:54:03.148Z,48.18
2023-05-07T16:56:29.677Z,48.38
2023-05-07T16:58:56.101Z,49.16
2023-05-07T17:01:22.709Z,49.96
2023-05-07T17:03:49.287Z,49.17
2023-05-07T17:06:17.884Z,49.33
2023-05-07T17:08:45.428Z,48.67
2023-05-07T17:11:13.886Z,48.77
2023-05-07T17:13:43.916Z,48.43
2023-05-07T17:16:10.432Z,48.70
2023-05-07T17:18:37.092Z,49.31
2023-05-07T17:21:09.987Z,48.55
2023-05-07T17:23:36.493Z,49.09
2023-05-07T17:26:03.053Z,48.68
2023-05-07T17:28:30.583Z,49.84
2023-05-07T17:30:59.085Z,50.70
2023-05-07T17:33:25.868Z,51.24
2023-05-07T17:35:54.638Z,50.56
2023-05-07T17:38:21.126Z,51.70
2023-05-07T17:40:48.439Z,51.53
2023-05-07T17:43:15.683Z,51.78
2023-05-07T17:45:42.175Z,51.82
2023-05-07T17:48:09.774Z,52.41
2023-05-07T17:50:37.287Z,52.44
2023-05-07T17:53:05.816Z,53.85
2023-05-07T17:55:40.323Z,54.30
2023-05-07T17:58:07.210Z,53.97
2023-05-07T18:00:33.686Z,54.36
2023-05-07T18:03:01.636Z,54.69
2023-05-07T18:05:28.922Z,53.55
2023-05-07T18:07:57.411Z,54.37
2023-05-07T18:10:24.143Z,55.06
2023-05-07T18:12:52.788Z,55.21
2023-05-07T18:15:19.453Z,55.46
2023-05-07T18:17:50.207Z,54.80
2023-05-07T18:20:16.772Z,55.76
2023-05-07T18:22:43.239Z,56.37
2023-05-07T18:25:10.006Z,55.74
2023-05-07T18:27:38.618Z,55.12
2023-05-07T18:30:05.786Z,55.86
2023-05-07T18:32:32.366Z,54.98
2023-05-07T18:34:59.004Z,55.88
2023-05-07T18:37:26.818Z,55.76
2023-05-07T18:39:54.401Z,55.92
2023-05-07T18:42:20.928Z,56.17
2023-05-07T18:44:47.370Z,56.25
2023-05-07T18:47:13.957Z,56.47
2023-05-07T18:49:40.539Z,57.07
2023-05-07T18:52:07.093Z,56.85
2023-05-07T18:54:34.550Z,56.89
2023-05-07T18:57:01.033Z,56.99
2023-05-07T18:59:27.557Z,57.31
2023-05-07T19:01:56.318Z,56.86
2023-05-07T19:04:24.417Z,57.47
2023-05-07T19:06:51.098Z,58.30
2023-05-07T19:09:18.971Z,57.70
2023-05-07T19:11:46.586Z,57.80
2023-05-07T19:14:13.034Z,57.59
2023-05-07T19:16:41.579Z,59.36
2023-05-07T19:19:08.368Z,58.94
2023-05-07T19:21:41.058Z,59.01
2023-05-07T19:24:08.202Z,59.38
2023-05-07T19:26:34.721Z,59.74
2023-05-07T19:29:16.559Z,59.84
2023-05-07T19:31:46.324Z,59.79
2023-05-07T19:34:15.421Z,60.83
2023-05-07T19:36:42.182Z,60.66
2023-05-07T19:39:08.731Z,60.71
2023-05-07T19:41:35.282Z,61.08
2023-05-07T19:44:02.034Z,61.38
2023-05-07T19:46:28.931Z,61.53
2023-05-07T19:49:01.338Z,61.54
2023-05-07T19:51:32.298Z,62.98
2023-05-07T19:54:00.011Z,62.85
2023-05-07T19:56:26.553Z,62.65
2023-05-07T19:58:53.054Z,63.23
2023-05-07T20:01:19.640Z,62.85
2023-05-07T20:03:46.557Z,63.22
2023-05-07T20:06:13.557Z,62.64
2023-05-07T20:08:40.248Z,63.43
2023-05-07T20:11:14.190Z,64.31
2023-05-07T20:13:41.187Z,63.30
2023-05-07T20:16:09.856Z,64.08
2023-05-07T20:18:37.423Z,64.12
2023-05-07T20:21:04.924Z,64.13
2023-05-07T20:23:31.511Z,63.79
2023-05-07T20:25:58.191Z,63.97
2023-05-07T20:28:25.077Z,65.41
2023-05-07T20:30:51.600Z,64.91
2023-05-07T20:33:18.213Z,65.32
2023-05-07T20:35:45.092Z,65.32
2023-05-07T20:38:11.743Z,66.06
2023-05-07T20:40:38.344Z,65.53
2023-05-07T20:43:08.822Z,65.44
2023-05-07T20:45:35.527Z,65.42
2023-05-07T20:48:14.460Z,65.59
2023-05-07T20:50:41.124Z,66.50
2023-05-07T20:53:07.643Z,66.16
2023-05-07T20:55:34.159Z,66.32
2023-05-07T20:58:01.057Z,66.53
2023-05-07T21:00:27.906Z,66.62
2023-05-07T21:02:54.428Z,66.59
2023-05-07T21:05:21.093Z,68.35
2023-05-07T21:07:47.555Z,68.50
2023-05-07T21:10:14.212Z,67.69
2023-05-07T21:12:40.947Z,68.38
2023-05-07T21:15:08.153Z,68.29
2023-05-07T21:17:35.276Z,67.89
2023-05-07T21:20:03.682Z,67.76
2023-05-07T21:22:39.291Z,68.19
2023-05-07T21:25:06.112Z,68.64
2023-05-07T21:27:32.621Z,68.91
2023-05-07T21:30:04.265Z,69.58
2023-05-07T21:32:30.995Z,71.04
2023-05-07T21:34:59.071Z,69.69
2023-05-07T21:37:25.541Z,69.88
2023-05-07T21:39:52.058Z,69.73
2023-05-07T21:42:18.788Z,69.57
2023-05-07T21:44:46.178Z,69.55
2023-05-07T21:47:12.709Z,70.50
2023-05-07T21:49:41.526Z,70.13
2023-05-07T21:52:16.265Z,69.39
2023-05-07T21:54:43.494Z,71.20
2023-05-07T21:57:10.298Z,71.05
2023-05-07T21:59:43.051Z,70.76
2023-05-07T22:02:09.511Z,71.33
2023-05-07T22:04:35.975Z,71.10
2023-05-07T22:07:02.434Z,70.85
2023-05-07T22:09:28.934Z,71.17
2023-05-07T22:11:55.590Z,71.52
2023-05-07T22:14:22.094Z,70.73
2023-05-07T22:16:48.610Z,68.06
2023-05-07T22:19:15.269Z,69.66
2023-05-07T22:21:41.873Z,70.84
2023-05-07T22:24:08.403Z,70.51
2023-05-07T22:26:34.848Z,72.30
2023-05-07T22:29:10.379Z,72.57
2023-05-07T22:31:36.905Z,71.53
2023-05-07T22:34:05.422Z,71.66
2023-05-07T22:36:32.294Z,71.81
2023-05-07T22:38:59.951Z,71.64
2023-05-07T22:41:26.548Z,72.02
2023-05-07T22:43:55.156Z,72.66
2023-05-07T22:46:21.692Z,72.03
2023-05-07T22:48:48.158Z,71.89
2023-05-07T22:51:14.805Z,73.50
2023-05-07T22:53:42.279Z,73.66
2023-05-07T22:56:10.123Z,73.77
2023-05-07T22:58:42.410Z,72.00
2023-05-07T23:01:13.958Z,73.58
2023-05-07T23:03:41.080Z,75.81
2023-05-07T23:06:07.937Z,75.47
2023-05-07T23:08:35.211Z,74.88
2023-05-07T23:11:01.840Z,74.82
2023-05-07T23:13:28.437Z,75.20
2023-05-07T23:15:55.007Z,75.80
2023-05-07T23:18:24.611Z,75.23
2023-05-07T23:20:51.132Z,75.55
2023-05-07T23:23:17.811Z,77.52
2023-05-07T23:25:44.578Z,77.98
2023-05-07T23:28:11.057Z,78.83
2023-05-07T23:30:37.761Z,77.81
2023-05-07T23:33:04.348Z,79.19
2023-05-07T23:35:30.999Z,80.39
2023-05-07T23:37:58.654Z,80.64
2023-05-07T23:40:25.257Z,79.61
2023-05-07T23:42:51.789Z,80.24
2023-05-07T23:45:18.308Z,81.40
2023-05-07T23:47:44.811Z,81.33
2023-05-07T23:50:11.629Z,82.94
2023-05-07T23:52:38.339Z,83.33
2023-05-07T23:55:05.494Z,82.28
2023-05-07T23:57:32.090Z,82.73
